createdAt,value
2023-06-14T00:02:09.952Z,97256.63
2023-06-14T00:04:40.220Z,97258.23
2023-06-14T00:07:12.456Z,97260.86
2023-06-14T00:09:41.925Z,97259.65
2023-06-14T00:12:10.088Z,97261.36
2023-06-14T00:14:38.062Z,97262.69
2023-06-14T00:17:06.088Z,97261.69
2023-06-14T00:19:36.499Z,97262.11
2023-06-14T00:22:05.114Z,97266.69
2023-06-14T00:24:33.335Z,97264.45
2023-06-14T00:27:01.393Z,97264.05
2023-06-14T00:29:30.619Z,97260.35
2023-06-14T00:31:58.677Z,97261.58
2023-06-14T00:34:28.783Z,97262.77
2023-06-14T00:36:56.782Z,97264.41
2023-06-14T00:39:24.844Z,97262.48
2023-06-14T00:41:53.043Z,97258.73
2023-06-14T00:44:23.045Z,97258.00
2023-06-14T00:46:51.709Z,97259.52
2023-06-14T00:49:21.415Z,97259.14
2023-06-14T00:51:49.789Z,97258.54
2023-06-14T00:54:17.958Z,97252.40
2023-06-14T00:56:46.549Z,97253.23
2023-06-14T00:59:16.624Z,97252.16
2023-06-14T01:01:46.272Z,97250.45
2023-06-14T01:04:14.374Z,97246.69
2023-06-14T01:07:15.763Z,97252.16
2023-06-14T01:10:02.598Z,97250.56
2023-06-14T01:12:40.860Z,97248.23
2023-06-14T01:15:10.645Z,97250.85
2023-06-14T01:17:44.910Z,97249.88
2023-06-14T01:20:16.203Z,97249.86
2023-06-14T01:22:54.758Z,97250.09
2023-06-14T01:25:24.247Z,97254.59
2023-06-14T01:28:05.296Z,97255.56
2023-06-14T01:30:35.416Z,97256.27
2023-06-14T01:33:05.737Z,97249.36
2023-06-14T01:35:33.895Z,97252.25
2023-06-14T01:38:04.841Z,97249.42
2023-06-14T01:40:35.871Z,97253.88
2023-06-14T01:43:05.724Z,97254.88
2023-06-14T01:45:35.937Z,97260.23
2023-06-14T01:48:05.625Z,97265.06
2023-06-14T01:50:33.922Z,97264.33
2023-06-14T01:53:02.246Z,97261.19
2023-06-14T01:55:30.873Z,97265.48
2023-06-14T01:57:59.828Z,97266.83
2023-06-14T02:00:28.692Z,97267.48
2023-06-14T02:02:57.460Z,97270.40
2023-06-14T02:05:28.290Z,97271.25
2023-06-14T02:07:56.312Z,97266.64
2023-06-14T02:10:24.271Z,97266.77
2023-06-14T02:12:52.317Z,97274.16
2023-06-14T02:15:21.002Z,97274.04
2023-06-14T02:17:51.110Z,97273.15
2023-06-14T02:20:19.313Z,97267.23
2023-06-14T02:22:47.490Z,97265.09
2023-06-14T02:25:16.640Z,97267.48
2023-06-14T02:27:44.821Z,97279.27
2023-06-14T02:30:13.956Z,97281.98
2023-06-14T02:32:43.822Z,97278.18
2023-06-14T02:35:14.672Z,97277.39
2023-06-14T02:37:43.937Z,97271.21
2023-06-14T02:40:12.814Z,97272.13
2023-06-14T02:42:41.070Z,97274.80
2023-06-14T02:45:10.121Z,97274.63
2023-06-14T02:47:38.210Z,97277.84
2023-06-14T02:50:07.544Z,97282.21
2023-06-14T02:52:35.611Z,97284.48
2023-06-14T02:55:04.014Z,97287.89
2023-06-14T02:57:32.400Z,97291.36
2023-06-14T03:00:00.438Z,97288.92
2023-06-14T03:02:29.141Z,97290.63
2023-06-14T03:04:57.542Z,97289.86
2023-06-14T03:07:26.907Z,97293.43
2023-06-14T03:09:55.047Z,97292.06
2023-06-14T03:12:25.035Z,97289.79
2023-06-14T03:14:55.213Z,97292.85
2023-06-14T03:17:25.592Z,97293.27
2023-06-14T03:19:54.095Z,97290.05
2023-06-14T03:22:23.223Z,97289.89
2023-06-14T03:24:52.794Z,97288.85
2023-06-14T03:27:21.897Z,97288.31
2023-06-14T03:29:50.368Z,97288.02
2023-06-14T03:32:18.794Z,97288.39
2023-06-14T03:34:47.841Z,97291.30
2023-06-14T03:37:19.571Z,97288.09
2023-06-14T03:39:49.643Z,97286.83
2023-06-14T03:42:22.254Z,97286.36
2023-06-14T03:44:50.606Z,97285.42
2023-06-14T03:47:19.664Z,97290.26
2023-06-14T03:49:48.690Z,97294.67
2023-06-14T03:52:17.564Z,97291.71
2023-06-14T03:57:21.396Z,97294.95
2023-06-14T03:59:51.170Z,97293.84
2023-06-14T04:02:21.189Z,97293.63
2023-06-14T04:04:50.110Z,97294.27
2023-06-14T04:07:21.009Z,97294.68
2023-06-14T04:09:50.403Z,97291.79
2023-06-14T04:12:18.522Z,97294.27
2023-06-14T04:14:49.590Z,97296.90
2023-06-14T04:17:17.621Z,97297.23
2023-06-14T04:19:46.589Z,97294.70
2023-06-14T04:22:15.154Z,97297.58
2023-06-14T04:24:43.563Z,97298.67
2023-06-14T04:27:13.091Z,97304.30
2023-06-14T04:29:41.568Z,97308.58
2023-06-14T04:32:14.746Z,97309.85
2023-06-14T04:34:43.778Z,97305.98
2023-06-14T04:37:14.532Z,97307.02
2023-06-14T04:39:43.801Z,97313.27
2023-06-14T04:42:12.919Z,97313.08
2023-06-14T04:44:44.683Z,97315.96
2023-06-14T04:47:15.597Z,97314.80
2023-06-14T04:49:44.782Z,97316.08
2023-06-14T04:52:14.159Z,97317.57
2023-06-14T04:54:44.672Z,97317.69
2023-06-14T04:57:18.513Z,97319.66
2023-06-14T04:59:55.994Z,97323.58
2023-06-14T05:02:26.657Z,97326.62
2023-06-14T05:04:58.389Z,97330.44
2023-06-14T05:07:26.526Z,97328.86
2023-06-14T05:09:54.606Z,97331.48
2023-06-14T05:12:24.646Z,97335.80
2023-06-14T05:14:52.805Z,97337.09
2023-06-14T05:17:22.455Z,97337.21
2023-06-14T05:19:50.807Z,97335.65
2023-06-14T05:22:18.805Z,97335.91
2023-06-14T05:24:49.041Z,97334.86
2023-06-14T05:27:17.888Z,97337.86
2023-06-14T05:29:46.164Z,97341.92
2023-06-14T05:32:14.216Z,97345.20
2023-06-14T05:34:43.421Z,97348.69
2023-06-14T05:37:11.723Z,97355.43
2023-06-14T05:39:39.572Z,97358.42
2023-06-14T05:42:08.045Z,97361.63
2023-06-14T05:44:36.022Z,97362.21
2023-06-14T05:47:04.670Z,97363.25
2023-06-14T05:49:32.709Z,97363.36
2023-06-14T05:52:00.704Z,97363.48
2023-06-14T05:54:28.744Z,97364.35
2023-06-14T05:56:56.802Z,97363.88
2023-06-14T05:59:24.790Z,97364.86
2023-06-14T06:01:52.805Z,97365.67
2023-06-14T06:04:21.613Z,97364.24
2023-06-14T06:06:49.802Z,97359.59
2023-06-14T06:09:17.845Z,97357.85
2023-06-14T06:11:53.213Z,97358.89
2023-06-14T06:14:22.599Z,97360.91
2023-06-14T06:16:50.835Z,97359.22
2023-06-14T06:19:18.806Z,97357.30
2023-06-14T06:21:46.825Z,97354.53
2023-06-14T06:24:14.827Z,97354.39
2023-06-14T06:26:43.341Z,97359.56
2023-06-14T06:29:11.478Z,97355.14
2023-06-14T06:31:39.627Z,97356.52
2023-06-14T06:34:07.817Z,97359.98
2023-06-14T06:36:36.385Z,97358.87
2023-06-14T06:39:11.324Z,97358.14
2023-06-14T06:41:41.015Z,97352.95
2023-06-14T06:44:11.166Z,97355.37
2023-06-14T06:46:42.364Z,97356.55
2023-06-14T06:49:13.212Z,97360.27
2023-06-14T06:51:44.410Z,97358.43
2023-06-14T06:54:12.613Z,97358.76
2023-06-14T06:56:40.786Z,97356.66
2023-06-14T06:59:08.782Z,97357.83
2023-06-14T07:01:37.642Z,97358.98
2023-06-14T07:04:05.696Z,97361.32
2023-06-14T07:06:33.940Z,97359.60
2023-06-14T07:09:02.547Z,97359.14
2023-06-14T07:11:31.152Z,97357.50
2023-06-14T07:13:59.214Z,97358.02
2023-06-14T07:16:27.392Z,97362.44
2023-06-14T07:18:55.447Z,97362.60
2023-06-14T07:21:23.567Z,97364.42
2023-06-14T07:23:51.621Z,97358.89
2023-06-14T07:26:19.907Z,97351.88
2023-06-14T07:28:50.216Z,97352.30
2023-06-14T07:31:20.287Z,97355.51
2023-06-14T07:33:48.484Z,97354.11
2023-06-14T07:36:16.610Z,97355.29
2023-06-14T07:38:45.562Z,97354.88
2023-06-14T07:41:13.635Z,97356.23
2023-06-14T07:43:41.545Z,97360.39
2023-06-14T07:46:10.349Z,97359.56
2023-06-14T07:48:38.969Z,97356.31
2023-06-14T07:51:07.336Z,97356.70
2023-06-14T07:53:35.702Z,97355.33
2023-06-14T07:56:03.940Z,97356.23
2023-06-14T07:58:31.850Z,97356.29
2023-06-14T08:01:01.180Z,97359.73
2023-06-14T08:03:29.397Z,97361.44
2023-06-14T08:05:57.496Z,97360.20
2023-06-14T08:08:25.960Z,97363.67
2023-06-14T08:10:53.975Z,97367.61
2023-06-14T08:13:21.854Z,97367.39
2023-06-14T08:15:50.169Z,97356.91
2023-06-14T08:18:18.313Z,97358.74
2023-06-14T08:20:46.680Z,97361.81
2023-06-14T08:23:14.830Z,97359.27
2023-06-14T08:25:42.959Z,97356.39
2023-06-14T08:28:11.340Z,97354.14
2023-06-14T08:30:39.694Z,97352.15
2023-06-14T08:33:16.784Z,97348.02
2023-06-14T08:35:45.726Z,97351.11
2023-06-14T08:38:14.515Z,97353.16
2023-06-14T08:40:43.460Z,97356.91
2023-06-14T08:43:11.892Z,97356.91
2023-06-14T08:45:40.325Z,97353.86
2023-06-14T08:48:09.736Z,97351.34
2023-06-14T08:50:42.939Z,97351.02
2023-06-14T08:53:20.987Z,97352.50
2023-06-14T08:55:49.987Z,97352.65
2023-06-14T08:58:18.862Z,97349.95
2023-06-14T09:00:47.213Z,97348.58
2023-06-14T09:03:15.823Z,97350.59
2023-06-14T09:05:45.240Z,97357.70
2023-06-14T09:08:13.303Z,97360.66
2023-06-14T09:10:42.074Z,97360.07
2023-06-14T09:13:10.443Z,97360.29
2023-06-14T09:15:38.432Z,97361.53
2023-06-14T09:18:07.764Z,97362.92
2023-06-14T09:20:36.407Z,97358.74
2023-06-14T09:23:06.748Z,97356.80
2023-06-14T09:25:45.100Z,97355.60
2023-06-14T09:28:13.510Z,97354.62
2023-06-14T09:30:42.009Z,97350.27
2023-06-14T09:33:11.949Z,97353.95
2023-06-14T09:35:40.192Z,97352.34
2023-06-14T09:38:08.487Z,97356.48
2023-06-14T09:40:38.074Z,97354.07
2023-06-14T09:43:11.503Z,97352.02
2023-06-14T09:45:41.357Z,97352.61
2023-06-14T09:48:10.696Z,97351.02
2023-06-14T09:50:41.019Z,97354.65
2023-06-14T09:53:12.803Z,97354.60
2023-06-14T09:55:43.090Z,97356.48
2023-06-14T09:58:13.612Z,97356.90
2023-06-14T10:00:42.841Z,97355.29
2023-06-14T10:03:15.253Z,97357.73
2023-06-14T10:05:48.320Z,97353.96
2023-06-14T10:08:19.174Z,97350.94
2023-06-14T10:10:47.579Z,97347.98
2023-06-14T10:13:17.125Z,97347.46
2023-06-14T10:16:13.366Z,97346.81
2023-06-14T10:19:12.253Z,97344.69
2023-06-14T10:22:04.131Z,97348.25
2023-06-14T10:24:39.752Z,97348.96
2023-06-14T10:27:12.339Z,97342.05
2023-06-14T10:29:55.691Z,97342.50
2023-06-14T10:32:29.358Z,97343.95
2023-06-14T10:35:00.061Z,97344.98
2023-06-14T10:37:28.872Z,97346.79
2023-06-14T10:39:57.271Z,97348.27
2023-06-14T10:42:32.566Z,97344.78
2023-06-14T10:45:01.951Z,97342.65
2023-06-14T10:47:38.964Z,97346.88
2023-06-14T10:50:09.262Z,97348.23
2023-06-14T10:52:45.386Z,97351.39
2023-06-14T10:55:18.090Z,97355.99
2023-06-14T10:57:52.233Z,97353.65
2023-06-14T11:00:26.591Z,97353.98
2023-06-14T11:03:45.908Z,97353.05
2023-06-14T11:06:16.920Z,97351.46
2023-06-14T11:09:11.314Z,97346.61
2023-06-14T11:11:43.542Z,97345.57
2023-06-14T11:14:12.041Z,97345.95
2023-06-14T11:16:40.087Z,97345.78
2023-06-14T11:19:08.424Z,97338.96
2023-06-14T11:21:41.893Z,97337.77
2023-06-14T11:24:13.359Z,97335.04
2023-06-14T11:26:42.140Z,97334.55
2023-06-14T11:29:10.607Z,97333.73
2023-06-14T11:31:38.837Z,97330.48
2023-06-14T11:34:07.414Z,97330.95
2023-06-14T11:36:36.480Z,97329.45
2023-06-14T11:39:09.747Z,97328.63
2023-06-14T11:41:45.399Z,97327.19
2023-06-14T11:44:13.721Z,97323.67
2023-06-14T11:46:42.048Z,97324.39
2023-06-14T11:49:10.876Z,97326.14
2023-06-14T11:51:39.686Z,97326.21
2023-06-14T11:54:09.053Z,97323.60
2023-06-14T11:56:37.754Z,97323.06
2023-06-14T11:59:06.951Z,97322.19
2023-06-14T12:01:39.430Z,97317.90
2023-06-14T12:04:07.911Z,97316.56
2023-06-14T12:06:40.508Z,97318.11
2023-06-14T12:09:14.951Z,97319.76
2023-06-14T12:11:43.465Z,97320.61
2023-06-14T12:14:12.226Z,97320.73
2023-06-14T12:16:45.380Z,97319.08
2023-06-14T12:19:15.644Z,97319.06
2023-06-14T12:21:49.054Z,97319.89
2023-06-14T12:24:17.185Z,97317.77
2023-06-14T12:26:45.896Z,97317.98
2023-06-14T12:29:14.272Z,97318.63
2023-06-14T12:31:43.033Z,97319.47
2023-06-14T12:34:11.870Z,97310.39
2023-06-14T12:36:45.372Z,97304.98
2023-06-14T12:39:14.247Z,97303.99
2023-06-14T12:41:43.251Z,97303.61
2023-06-14T12:44:14.859Z,97303.48
2023-06-14T12:46:44.144Z,97302.30
2023-06-14T12:49:13.111Z,97300.05
2023-06-14T12:51:41.756Z,97300.77
2023-06-14T12:54:10.251Z,97298.60
2023-06-14T12:56:38.411Z,97298.33
2023-06-14T12:59:07.415Z,97297.51
2023-06-14T13:01:36.216Z,97298.05
2023-06-14T13:04:04.560Z,97295.30
2023-06-14T13:06:33.255Z,97296.34
2023-06-14T13:09:02.898Z,97293.03
2023-06-14T13:11:31.704Z,97292.38
2023-06-14T13:14:02.198Z,97287.71
2023-06-14T13:16:32.641Z,97285.48
2023-06-14T13:19:01.065Z,97287.73
2023-06-14T13:21:29.360Z,97290.35
2023-06-14T13:23:57.586Z,97291.37
2023-06-14T13:26:26.187Z,97288.69
2023-06-14T13:28:54.550Z,97288.36
2023-06-14T13:31:22.891Z,97289.40
2023-06-14T13:33:51.223Z,97293.71
2023-06-14T13:36:19.341Z,97291.23
2023-06-14T13:38:49.353Z,97287.61
2023-06-14T13:41:17.923Z,97287.75
2023-06-14T13:43:45.938Z,97291.32
2023-06-14T13:46:14.148Z,97293.08
2023-06-14T13:48:42.224Z,97294.06
2023-06-14T13:51:10.170Z,97298.83
2023-06-14T13:53:38.283Z,97298.33
2023-06-14T13:56:06.366Z,97300.70
2023-06-14T13:58:34.890Z,97301.27
2023-06-14T14:01:03.174Z,97294.14
2023-06-14T14:03:31.965Z,97295.11
2023-06-14T14:06:04.644Z,97298.11
2023-06-14T14:08:32.641Z,97295.17
2023-06-14T14:11:00.743Z,97292.13
2023-06-14T14:13:28.984Z,97292.56
2023-06-14T14:15:57.168Z,97291.24
2023-06-14T14:18:26.835Z,97292.00
2023-06-14T14:20:56.164Z,97288.13
2023-06-14T14:23:24.342Z,97290.61
2023-06-14T14:25:52.370Z,97285.72
2023-06-14T14:28:21.687Z,97286.31
2023-06-14T14:30:50.444Z,97288.20
2023-06-14T14:33:18.685Z,97292.12
2023-06-14T14:35:47.757Z,97291.03
2023-06-14T14:38:17.212Z,97288.83
2023-06-14T14:40:46.133Z,97289.30
2023-06-14T14:43:14.304Z,97290.31
2023-06-14T14:45:42.583Z,97289.74
2023-06-14T14:48:11.050Z,97291.91
2023-06-14T14:50:39.317Z,97294.90
2023-06-14T14:53:07.959Z,97288.45
2023-06-14T14:55:38.409Z,97286.39
2023-06-14T14:58:08.047Z,97286.94
2023-06-14T15:00:36.318Z,97288.73
2023-06-14T15:03:04.638Z,97288.61
2023-06-14T15:05:32.962Z,97285.30
2023-06-14T15:08:01.050Z,97286.43
2023-06-14T15:10:29.030Z,97291.92
2023-06-14T15:12:57.143Z,97292.59
2023-06-14T15:15:25.110Z,97291.05
2023-06-14T15:17:53.071Z,97292.52
2023-06-14T15:20:21.196Z,97297.06
2023-06-14T15:22:50.917Z,97297.17
2023-06-14T15:25:20.862Z,97297.71
2023-06-14T15:27:48.771Z,97295.99
2023-06-14T15:30:16.875Z,97296.41
2023-06-14T15:32:45.190Z,97295.67
2023-06-14T15:35:13.391Z,97297.17
2023-06-14T15:37:41.635Z,97298.36
2023-06-14T15:40:10.477Z,97302.24
2023-06-14T15:42:39.198Z,97307.91
2023-06-14T15:45:07.678Z,97306.73
2023-06-14T15:47:35.801Z,97306.32
2023-06-14T15:50:06.292Z,97308.94
2023-06-14T15:52:35.281Z,97308.77
2023-06-14T15:55:04.396Z,97310.17
2023-06-14T15:57:32.602Z,97312.55
2023-06-14T16:00:00.576Z,97314.31
2023-06-14T16:02:28.855Z,97313.51
2023-06-14T16:04:56.908Z,97316.27
2023-06-14T16:07:26.334Z,97317.98
2023-06-14T16:09:54.286Z,97318.13
2023-06-14T16:12:23.500Z,97319.89
2023-06-14T16:14:51.680Z,97325.85
2023-06-14T16:17:19.662Z,97333.86
2023-06-14T16:19:48.081Z,97334.15
2023-06-14T16:22:16.268Z,97335.63
2023-06-14T16:24:44.522Z,97338.55
2023-06-14T16:27:14.300Z,97334.70
2023-06-14T16:29:42.718Z,97333.59
2023-06-14T16:32:11.266Z,97335.20
2023-06-14T16:34:39.422Z,97335.42
2023-06-14T16:37:07.547Z,97335.80
2023-06-14T16:39:35.590Z,97337.27
2023-06-14T16:42:04.373Z,97336.97
2023-06-14T16:44:32.436Z,97337.77
2023-06-14T16:47:03.251Z,97338.38
2023-06-14T16:49:31.281Z,97344.38
2023-06-14T16:51:59.476Z,97347.34
2023-06-14T16:54:27.619Z,97352.12
2023-06-14T16:56:55.801Z,97353.49
2023-06-14T16:59:24.878Z,97354.88
2023-06-14T17:01:56.348Z,97364.05
2023-06-14T17:04:24.482Z,97363.96
2023-06-14T17:06:52.360Z,97359.40
2023-06-14T17:09:20.314Z,97365.45
2023-06-14T17:11:48.224Z,97370.55
2023-06-14T17:14:16.291Z,97370.83
2023-06-14T17:16:44.329Z,97375.67
2023-06-14T17:19:12.432Z,97377.48
2023-06-14T17:21:43.242Z,97377.34
2023-06-14T17:24:24.261Z,97381.02
2023-06-14T17:26:54.295Z,97380.48
2023-06-14T17:29:24.972Z,97381.71
2023-06-14T17:31:53.951Z,97382.02
2023-06-14T17:34:21.965Z,97382.91
2023-06-14T17:36:52.038Z,97385.61
2023-06-14T17:39:20.555Z,97388.00
2023-06-14T17:41:48.516Z,97389.10
2023-06-14T17:44:16.636Z,97391.97
2023-06-14T17:46:46.002Z,97401.66
2023-06-14T17:49:14.289Z,97403.59
2023-06-14T17:51:42.441Z,97403.89
2023-06-14T17:54:10.455Z,97399.76
2023-06-14T17:56:38.678Z,97399.20
2023-06-14T17:59:08.759Z,97401.48
2023-06-14T18:01:37.517Z,97401.25
2023-06-14T18:04:06.012Z,97405.06
2023-06-14T18:06:34.386Z,97407.09
2023-06-14T18:09:02.443Z,97408.37
2023-06-14T18:11:31.963Z,97412.90
2023-06-14T18:14:00.751Z,97418.80
2023-06-14T18:16:28.858Z,97420.11
2023-06-14T18:18:57.094Z,97418.19
2023-06-14T18:21:25.141Z,97417.84
2023-06-14T18:23:54.642Z,97418.98
2023-06-14T18:26:29.447Z,97419.98
2023-06-14T18:28:57.535Z,97418.70
2023-06-14T18:31:26.044Z,97424.84
2023-06-14T18:33:54.389Z,97424.23
2023-06-14T18:36:22.359Z,97428.50
2023-06-14T18:38:50.608Z,97431.16
2023-06-14T18:41:18.592Z,97431.13
2023-06-14T18:43:47.166Z,97434.31
2023-06-14T18:46:15.158Z,97436.26
2023-06-14T18:48:44.852Z,97435.69
2023-06-14T18:51:13.074Z,97442.52
2023-06-14T18:53:42.591Z,97443.04
2023-06-14T18:56:11.040Z,97443.80
2023-06-14T18:58:38.994Z,97442.13
2023-06-14T19:01:07.295Z,97446.04
2023-06-14T19:03:35.784Z,97452.95
2023-06-14T19:06:04.358Z,97458.52
2023-06-14T19:08:32.567Z,97463.87
2023-06-14T19:11:00.614Z,97467.92
2023-06-14T19:13:30.080Z,97466.46
2023-06-14T19:15:58.225Z,97466.34
2023-06-14T19:18:26.927Z,97471.06
2023-06-14T19:20:55.567Z,97475.25
2023-06-14T19:23:25.491Z,97474.23
2023-06-14T19:25:53.955Z,97475.84
2023-06-14T19:28:25.353Z,97481.98
2023-06-14T19:30:55.138Z,97482.82
2023-06-14T19:33:23.682Z,97485.08
2023-06-14T19:35:51.626Z,97486.17
2023-06-14T19:38:20.081Z,97487.33
2023-06-14T19:40:48.209Z,97485.66
2023-06-14T19:43:16.239Z,97486.41
2023-06-14T19:45:44.871Z,97486.49
2023-06-14T19:48:20.718Z,97488.54
2023-06-14T19:50:51.728Z,97485.38
2023-06-14T19:53:21.421Z,97486.52
2023-06-14T19:55:49.859Z,97484.65
2023-06-14T19:58:19.073Z,97483.73
2023-06-14T20:00:47.167Z,97481.44
2023-06-14T20:03:15.356Z,97482.45
2023-06-14T20:05:43.812Z,97480.40
2023-06-14T20:08:11.940Z,97478.42
2023-06-14T20:10:40.607Z,97475.61
2023-06-14T20:13:08.998Z,97475.02
2023-06-14T20:15:37.127Z,97477.47
2023-06-14T20:18:05.328Z,97479.30
2023-06-14T20:20:33.708Z,97480.66
2023-06-14T20:23:03.433Z,97480.02
2023-06-14T20:25:33.834Z,97474.98
2023-06-14T20:28:02.110Z,97471.54
2023-06-14T20:30:30.358Z,97473.52
2023-06-14T20:32:58.907Z,97472.58
2023-06-14T20:35:27.991Z,97482.74
2023-06-14T20:37:56.060Z,97482.44
2023-06-14T20:40:26.234Z,97484.61
2023-06-14T20:42:57.924Z,97484.36
2023-06-14T20:45:27.234Z,97482.55
2023-06-14T20:47:55.672Z,97486.08
2023-06-14T20:50:24.179Z,97486.71
2023-06-14T20:52:52.454Z,97489.29
2023-06-14T20:55:20.872Z,97490.04
2023-06-14T20:57:49.351Z,97492.86
2023-06-14T21:00:18.975Z,97494.41
2023-06-14T21:02:47.436Z,97492.52
2023-06-14T21:05:16.050Z,97492.29
2023-06-14T21:07:44.180Z,97493.77
2023-06-14T21:10:12.873Z,97498.54
2023-06-14T21:12:41.544Z,97503.48
2023-06-14T21:15:10.373Z,97507.31
2023-06-14T21:17:38.713Z,97505.79
2023-06-14T21:20:08.170Z,97503.17
2023-06-14T21:22:38.006Z,97504.33
2023-06-14T21:25:06.915Z,97503.35
2023-06-14T21:27:34.876Z,97504.08
2023-06-14T21:30:04.154Z,97507.23
2023-06-14T21:32:32.546Z,97511.38
2023-06-14T21:35:01.250Z,97512.39
2023-06-14T21:37:29.317Z,97512.20
2023-06-14T21:39:57.363Z,97510.52
2023-06-14T21:42:25.430Z,97511.14
2023-06-14T21:44:56.629Z,97510.30
2023-06-14T21:47:24.640Z,97511.24
2023-06-14T21:49:52.580Z,97509.53
2023-06-14T21:52:20.587Z,97507.40
2023-06-14T21:54:57.040Z,97502.70
2023-06-14T21:57:26.684Z,97502.77
2023-06-14T21:59:55.764Z,97500.62
2023-06-14T22:02:23.739Z,97500.11
2023-06-14T22:04:51.719Z,97502.52
2023-06-14T22:07:20.067Z,97504.06
2023-06-14T22:09:49.946Z,97501.02
2023-06-14T22:12:18.158Z,97500.02
2023-06-14T22:14:49.627Z,97494.03
2023-06-14T22:17:19.169Z,97488.41
2023-06-14T22:19:51.680Z,97486.73
2023-06-14T22:22:25.524Z,97484.59
2023-06-14T22:24:55.654Z,97484.90
2023-06-14T22:27:27.585Z,97485.29
2023-06-14T22:29:59.266Z,97481.23
2023-06-14T22:32:28.329Z,97483.33
2023-06-14T22:35:03.911Z,97482.80
2023-06-14T22:37:38.228Z,97486.20
2023-06-14T22:40:11.792Z,97482.39
2023-06-14T22:42:54.372Z,97481.13
2023-06-14T22:45:28.550Z,97479.62
2023-06-14T22:47:59.060Z,97481.95
2023-06-14T22:50:27.414Z,97479.64
2023-06-14T22:52:55.335Z,97477.63
2023-06-14T22:55:27.480Z,97472.02
2023-06-14T22:57:55.938Z,97470.33
2023-06-14T23:00:24.014Z,97469.96
2023-06-14T23:02:52.154Z,97471.56
2023-06-14T23:05:20.758Z,97477.80
2023-06-14T23:07:49.053Z,97480.51
2023-06-14T23:10:19.206Z,97478.47
2023-06-14T23:12:48.107Z,97479.48
2023-06-14T23:15:17.424Z,97481.73
2023-06-14T23:17:50.960Z,97481.27
2023-06-14T23:20:19.640Z,97480.66
2023-06-14T23:22:48.555Z,97481.23
2023-06-14T23:25:17.402Z,97481.63
2023-06-14T23:27:46.876Z,97479.86
2023-06-14T23:30:16.268Z,97478.11
2023-06-14T23:32:50.825Z,97478.96
2023-06-14T23:35:19.841Z,97476.89
2023-06-14T23:37:48.587Z,97473.21
2023-06-14T23:40:19.312Z,97473.52
2023-06-14T23:42:52.289Z,97471.39
2023-06-14T23:45:20.584Z,97474.58
2023-06-14T23:47:48.658Z,97472.88
2023-06-14T23:50:17.237Z,97471.66
2023-06-14T23:52:45.400Z,97470.94
2023-06-14T23:55:21.505Z,97471.69
2023-06-14T23:57:54.526Z,97473.65
